Time;durP1;ratioP1;P1;durP2;ratioP2;P2;SDS_P1;SDS_P2;PMS_P1;PMS_P2;Temp;Humidity;BMP_temperature;BMP_pressure;BME280_temperature;BME280_humidity;BME280_pressure;Samples;Min_cycle;Max_cycle;Signal;HPM_P1;HPM_P2
2023/03/30 04:01:17;;;;;;;5.95;5.50;;;9.10;99.90;;;;;;5497620;23;20542;-70
2023/03/30 04:03:44;;;;;;;4.57;4.38;;;9.10;99.90;;;;;;4922321;29;20729;-70
2023/03/30 04:06:11;;;;;;;6.18;3.83;;;9.10;99.90;;;;;;4914421;29;20309;-69
2023/03/30 04:08:38;;;;;;;6.20;4.38;;;9.10;99.90;;;;;;4920804;29;20233;-69
2023/03/30 04:11:06;;;;;;;5.47;3.85;;;9.10;99.90;;;;;;4925626;29;20223;-68
2023/03/30 04:13:33;;;;;;;5.00;3.38;;;9.10;99.90;;;;;;4913454;29;20210;-71
2023/03/30 04:16:00;;;;;;;6.70;4.03;;;9.10;99.90;;;;;;4906313;29;20211;-70
2023/03/30 04:18:32;;;;;;;10.05;5.55;;;9.10;99.90;;;;;;4940871;23;20237;-68
2023/03/30 04:21:01;;;;;;;5.03;4.63;;;9.10;99.90;;;;;;4891438;29;20293;-69
2023/03/30 04:23:29;;;;;;;9.13;4.53;;;9.10;99.90;;;;;;4901312;29;20221;-68
2023/03/30 04:25:56;;;;;;;4.70;3.38;;;9.00;99.90;;;;;;4899914;29;20242;-68
2023/03/30 04:28:23;;;;;;;7.95;3.72;;;9.00;99.90;;;;;;4885800;29;20259;-69
2023/03/30 04:30:50;;;;;;;6.22;5.63;;;9.00;99.90;;;;;;4874493;29;20216;-70
2023/03/30 04:33:17;;;;;;;8.85;5.30;;;9.00;99.90;;;;;;4875728;29;20232;-68
2023/03/30 04:35:45;;;;;;;7.95;4.57;;;8.90;99.90;;;;;;4888775;29;20211;-69
2023/03/30 04:38:12;;;;;;;4.80;3.50;;;8.90;99.90;;;;;;4879641;29;20235;-69
2023/03/30 04:40:39;;;;;;;5.32;4.93;;;8.90;99.90;;;;;;4864438;29;20305;-69
2023/03/30 04:43:06;;;;;;;4.85;4.47;;;8.90;99.90;;;;;;4874816;29;20306;-69
2023/03/30 04:45:32;;;;;;;7.90;4.88;;;8.90;99.90;;;;;;4881001;29;20228;-69
2023/03/30 04:47:59;;;;;;;5.45;4.93;;;8.90;99.90;;;;;;4878678;29;20234;-69
2023/03/30 04:50:26;;;;;;;4.50;3.33;;;8.90;99.90;;;;;;4885559;29;20647;-68
2023/03/30 04:52:54;;;;;;;7.03;6.07;;;8.90;99.90;;;;;;4877612;29;20292;-69
2023/03/30 04:55:21;;;;;;;5.00;4.35;;;8.90;99.90;;;;;;4876118;29;20207;-69
2023/03/30 04:57:47;;;;;;;16.83;5.07;;;8.90;99.90;;;;;;4876077;29;20238;-69
2023/03/30 05:00:16;;;;;;;15.75;6.18;;;8.90;99.90;;;;;;4880642;29;20207;-68
2023/03/30 05:02:42;;;;;;;6.35;4.45;;;8.90;99.90;;;;;;4869187;29;20288;-70
2023/03/30 05:05:09;;;;;;;8.48;5.97;;;8.90;99.90;;;;;;4882848;29;20227;-69
2023/03/30 05:07:36;;;;;;;7.20;4.03;;;9.00;99.90;;;;;;4872406;29;20324;-69
2023/03/30 05:10:04;;;;;;;5.05;4.60;;;9.00;99.90;;;;;;4886663;29;20226;-69
2023/03/30 05:12:31;;;;;;;8.18;5.38;;;9.00;99.90;;;;;;4882510;29;20215;-68
2023/03/30 05:14:58;;;;;;;7.43;6.72;;;9.00;99.90;;;;;;4883059;29;20263;-69
2023/03/30 05:17:24;;;;;;;5.57;5.07;;;9.00;99.90;;;;;;4879934;29;20243;-68
2023/03/30 05:19:52;;;;;;;7.88;4.53;;;9.10;99.90;;;;;;4883411;29;20386;-71
2023/03/30 05:22:19;;;;;;;6.03;5.05;;;9.10;99.90;;;;;;4888303;29;20219;-68
2023/03/30 05:24:45;;;;;;;4.10;3.80;;;9.10;99.90;;;;;;4882557;29;20247;-69
2023/03/30 05:27:14;;;;;;;3.85;3.53;;;9.10;99.90;;;;;;4879145;29;20685;-69
2023/03/30 05:29:41;;;;;;;6.38;5.47;;;9.10;99.90;;;;;;4861697;29;20216;-68
2023/03/30 05:32:08;;;;;;;4.55;3.97;;;9.10;99.90;;;;;;4873838;29;20212;-67
2023/03/30 05:34:34;;;;;;;3.60;3.35;;;9.20;99.90;;;;;;4871345;29;20577;-68
2023/03/30 05:37:01;;;;;;;3.60;3.40;;;9.20;99.90;;;;;;4874758;29;20227;-68
2023/03/30 05:39:28;;;;;;;6.05;5.53;;;9.20;99.90;;;;;;4879497;29;20215;-68
2023/03/30 05:41:55;;;;;;;3.53;2.85;;;9.30;99.90;;;;;;4889711;29;20215;-68
2023/03/30 05:44:23;;;;;;;5.47;5.07;;;9.30;99.90;;;;;;4889844;29;20207;-69
2023/03/30 05:46:50;;;;;;;7.45;6.20;;;9.30;99.90;;;;;;4881084;29;20213;-69
2023/03/30 05:49:16;;;;;;;4.88;3.47;;;9.30;99.90;;;;;;4889859;29;20207;-68
2023/03/30 05:51:43;;;;;;;5.22;4.40;;;9.40;99.90;;;;;;4894202;29;20282;-68
2023/03/30 05:54:11;;;;;;;5.53;4.63;;;9.40;99.90;;;;;;4876665;29;20216;-68
2023/03/30 05:56:38;;;;;;;5.18;3.25;;;9.50;99.90;;;;;;4882407;29;20293;-67
2023/03/30 05:59:05;;;;;;;4.20;3.90;;;9.50;99.90;;;;;;4887071;29;20203;-68
2023/03/30 06:01:33;;;;;;;3.30;3.17;;;9.50;99.90;;;;;;4883522;29;20214;-69
2023/03/30 06:04:00;;;;;;;11.32;3.72;;;9.60;99.90;;;;;;4872525;29;20219;-68
2023/03/30 06:06:27;;;;;;;3.75;3.42;;;9.70;99.90;;;;;;4881796;29;20258;-69
2023/03/30 06:08:53;;;;;;;6.72;6.03;;;9.70;99.90;;;;;;4888883;29;20328;-68
2023/03/30 06:11:20;;;;;;;2.20;2.10;;;9.80;99.90;;;;;;4888829;29;20208;-67
2023/03/30 06:13:47;;;;;;;3.92;3.38;;;9.80;99.90;;;;;;4882411;29;20246;-69
2023/03/30 06:16:13;;;;;;;2.95;2.85;;;9.80;99.90;;;;;;4883480;29;20214;-69
2023/03/30 06:18:42;;;;;;;3.38;3.13;;;9.90;99.90;;;;;;4885779;29;20736;-68
2023/03/30 06:21:08;;;;;;;2.85;2.67;;;9.90;99.90;;;;;;4873564;29;20211;-68
2023/03/30 06:23:36;;;;;;;3.47;2.85;;;10.00;99.90;;;;;;4880529;29;20216;-69
2023/03/30 06:26:03;;;;;;;3.72;2.08;;;10.00;99.90;;;;;;4883745;29;20249;-69
2023/03/30 06:28:30;;;;;;;9.55;2.30;;;10.00;99.90;;;;;;4872605;29;20280;-70
2023/03/30 06:30:57;;;;;;;6.57;2.17;;;10.10;99.90;;;;;;4896067;29;20215;-69
2023/03/30 06:33:25;;;;;;;5.45;3.50;;;10.10;99.90;;;;;;4885436;29;20230;-70
2023/03/30 06:35:53;;;;;;;12.77;4.60;;;10.10;99.90;;;;;;4896510;29;20242;-69
2023/03/30 06:38:21;;;;;;;3.70;3.53;;;10.20;99.90;;;;;;4878436;29;20237;-70
2023/03/30 06:40:48;;;;;;;5.97;3.72;;;10.20;99.90;;;;;;4878577;29;20219;-69
2023/03/30 06:43:16;;;;;;;3.75;3.28;;;10.10;99.90;;;;;;4891260;29;20240;-69
2023/03/30 06:45:43;;;;;;;3.83;3.53;;;10.20;99.90;;;;;;4890149;29;20223;-68
2023/03/30 06:48:10;;;;;;;2.28;2.17;;;10.10;99.90;;;;;;4867655;29;20280;-69
2023/03/30 06:50:39;;;;;;;2.25;2.13;;;10.20;99.90;;;;;;4870966;29;20224;-68
2023/03/30 06:53:07;;;;;;;3.90;3.50;;;10.30;99.90;;;;;;4869956;29;20211;-69
2023/03/30 06:55:34;;;;;;;4.53;2.25;;;10.30;99.90;;;;;;4879364;29;20207;-68
2023/03/30 06:58:00;;;;;;;4.80;4.43;;;10.40;99.90;;;;;;4893551;29;20571;-69
2023/03/30 07:00:28;;;;;;;7.65;2.10;;;10.50;99.90;;;;;;4865986;29;20243;-69
2023/03/30 07:02:55;;;;;;;6.63;2.65;;;10.60;99.90;;;;;;4889963;29;20203;-68
2023/03/30 07:05:23;;;;;;;4.22;3.92;;;10.60;99.90;;;;;;4877418;29;20697;-68
2023/03/30 07:07:50;;;;;;;2.85;2.58;;;10.70;99.90;;;;;;4882909;29;20741;-69
2023/03/30 07:10:18;;;;;;;3.22;3.03;;;10.80;99.90;;;;;;4875104;29;20215;-69
2023/03/30 07:12:45;;;;;;;3.85;3.25;;;10.80;99.90;;;;;;4885551;29;20208;-69
2023/03/30 07:15:12;;;;;;;3.00;2.80;;;10.90;99.90;;;;;;4887037;29;20278;-69
2023/03/30 07:17:39;;;;;;;3.58;2.90;;;11.00;99.90;;;;;;4875016;29;20500;-69
2023/03/30 07:20:07;;;;;;;2.17;2.03;;;11.10;99.90;;;;;;4873779;29;20209;-69
2023/03/30 07:22:34;;;;;;;5.43;4.15;;;11.10;99.90;;;;;;4877632;29;20590;-69
2023/03/30 07:25:01;;;;;;;5.18;3.50;;;11.20;99.90;;;;;;4878263;29;20290;-69
2023/03/30 07:27:29;;;;;;;3.90;3.00;;;11.40;99.90;;;;;;4880211;29;20232;-70
2023/03/30 07:29:56;;;;;;;4.70;4.23;;;11.60;99.90;;;;;;4880330;29;20544;-68
2023/03/30 07:32:22;;;;;;;3.30;3.00;;;11.70;99.90;;;;;;4874591;29;20613;-71
2023/03/30 07:34:49;;;;;;;2.53;2.43;;;11.70;99.90;;;;;;4891671;29;20852;-69
2023/03/30 07:37:16;;;;;;;4.93;2.60;;;11.80;99.90;;;;;;4883101;29;20487;-67
2023/03/30 07:39:43;;;;;;;3.70;2.33;;;11.80;99.90;;;;;;4885245;29;20479;-68
2023/03/30 07:42:10;;;;;;;3.50;3.20;;;11.90;99.90;;;;;;4881727;29;21008;-69
2023/03/30 07:44:38;;;;;;;2.17;2.13;;;12.00;99.90;;;;;;4878105;29;20468;-69
2023/03/30 07:47:06;;;;;;;4.73;3.10;;;12.10;99.90;;;;;;4896302;29;20514;-69
2023/03/30 07:49:33;;;;;;;2.60;2.40;;;12.10;99.90;;;;;;4894119;29;20517;-69
2023/03/30 07:52:00;;;;;;;2.83;2.10;;;12.10;99.90;;;;;;4888612;29;21119;-69
2023/03/30 07:54:27;;;;;;;2.73;2.40;;;12.20;99.90;;;;;;4896447;29;20467;-68
2023/03/30 07:56:53;;;;;;;3.17;2.73;;;12.20;99.90;;;;;;4886625;29;20900;-69
2023/03/30 07:59:22;;;;;;;3.33;1.97;;;12.20;99.90;;;;;;4891384;29;20551;-69
2023/03/30 08:01:50;;;;;;;2.90;2.70;;;12.20;99.90;;;;;;4877886;29;20470;-68
2023/03/30 08:04:17;;;;;;;2.77;2.67;;;12.30;99.90;;;;;;4877725;29;20991;-69
2023/03/30 08:06:44;;;;;;;2.37;2.27;;;12.30;99.90;;;;;;4875056;29;20492;-69
2023/03/30 08:09:11;;;;;;;2.80;2.50;;;12.30;99.90;;;;;;4865269;29;21007;-69
2023/03/30 08:11:38;;;;;;;7.43;2.20;;;12.30;99.90;;;;;;4876217;29;20475;-69
2023/03/30 08:14:06;;;;;;;2.30;2.10;;;12.30;99.90;;;;;;4874827;29;20479;-69
2023/03/30 08:16:32;;;;;;;3.43;3.13;;;12.40;99.90;;;;;;4890830;29;20880;-69
2023/03/30 08:19:00;;;;;;;5.63;3.17;;;12.40;99.90;;;;;;4880673;29;20502;-69
2023/03/30 08:21:27;;;;;;;4.10;2.23;;;12.30;99.90;;;;;;4863089;29;20852;-68
2023/03/30 08:23:56;;;;;;;3.70;3.20;;;12.30;99.90;;;;;;4897187;29;20467;-68
2023/03/30 08:26:23;;;;;;;4.10;3.73;;;12.40;99.90;;;;;;4888561;29;20491;-68
2023/03/30 08:28:50;;;;;;;2.17;1.97;;;12.30;99.90;;;;;;4888023;29;20493;-68
2023/03/30 08:31:17;;;;;;;1.93;1.70;;;12.30;99.90;;;;;;4879749;29;21325;-69
2023/03/30 08:33:44;;;;;;;3.50;3.00;;;12.20;99.90;;;;;;4894327;29;20506;-69
2023/03/30 08:36:12;;;;;;;5.37;3.07;;;12.10;99.90;;;;;;4879664;29;20479;-69
2023/03/30 08:38:40;;;;;;;2.60;2.40;;;12.20;99.90;;;;;;4897046;29;20495;-69
2023/03/30 08:41:42;;;;;;;4.13;3.07;;;12.20;99.90;;;;;;4882394;29;20483;-69
2023/03/30 08:44:14;;;;;;;4.90;2.07;;;12.30;99.90;;;;;;4885502;29;20467;-69
2023/03/30 08:46:43;;;;;;;4.90;3.00;;;12.30;99.90;;;;;;4882998;29;20605;-69
2023/03/30 08:49:16;;;;;;;2.07;1.97;;;12.40;99.90;;;;;;4887620;29;20621;-68
2023/03/30 08:51:45;;;;;;;3.70;2.40;;;12.40;99.90;;;;;;4869730;29;20481;-68
2023/03/30 08:54:16;;;;;;;9.33;3.10;;;12.40;99.90;;;;;;4890922;29;20499;-68
2023/03/30 08:57:04;;;;;;;3.10;2.80;;;12.50;99.90;;;;;;4895046;29;20491;-68
2023/03/30 08:59:41;;;;;;;5.57;1.80;;;12.60;99.90;;;;;;4867256;29;20520;-70
2023/03/30 09:02:16;;;;;;;5.47;1.77;;;12.60;99.90;;;;;;4875139;29;21149;-69
2023/03/30 09:04:56;;;;;;;2.57;2.47;;;12.70;99.90;;;;;;4887175;29;20470;-69
2023/03/30 09:07:27;;;;;;;4.10;3.17;;;12.70;99.90;;;;;;4870685;29;20527;-68
2023/03/30 09:09:56;;;;;;;4.30;3.90;;;12.80;99.90;;;;;;4869174;29;20484;-69
2023/03/30 09:12:36;;;;;;;1.73;1.73;;;12.90;99.90;;;;;;4887799;29;20474;-68
2023/03/30 09:15:07;;;;;;;2.70;2.60;;;13.10;99.90;;;;;;4863251;29;20480;-69
2023/03/30 09:17:38;;;;;;;11.30;3.07;;;13.20;99.90;;;;;;4880419;29;20503;-69
2023/03/30 09:20:09;;;;;;;1.80;1.70;;;13.30;99.90;;;;;;4873367;29;20814;-68
2023/03/30 09:22:40;;;;;;;3.93;3.10;;;13.40;99.90;;;;;;4866231;29;20468;-69
2023/03/30 09:25:14;;;;;;;4.17;2.93;;;13.60;99.90;;;;;;4865026;29;20563;-69
2023/03/30 09:27:49;;;;;;;3.37;2.10;;;13.70;99.90;;;;;;4866978;29;20530;-68
2023/03/30 09:30:18;;;;;;;1.90;1.87;;;13.90;99.90;;;;;;4890819;29;20822;-69
2023/03/30 09:32:58;;;;;;;4.40;2.67;;;14.10;99.90;;;;;;4889726;29;20467;-68
2023/03/30 09:35:32;;;;;;;7.20;2.10;;;14.20;99.90;;;;;;4874792;29;20465;-69
2023/03/30 09:38:00;;;;;;;1.17;1.17;;;14.40;99.90;;;;;;4877139;29;20491;-68
2023/03/30 09:40:41;;;;;;;1.00;1.00;;;14.60;99.90;;;;;;4876824;29;20473;-69
2023/03/30 09:43:14;;;;;;;2.20;1.20;;;14.80;99.90;;;;;;4879287;29;20960;-68
2023/03/30 09:45:42;;;;;;;1.33;1.23;;;15.00;99.90;;;;;;4871674;29;20473;-68
2023/03/30 09:48:09;;;;;;;1.47;1.33;;;15.10;99.90;;;;;;4876080;29;20597;-69
2023/03/30 09:50:39;;;;;;;0.97;0.97;;;15.20;99.90;;;;;;4868138;29;20505;-68
2023/03/30 09:53:19;;;;;;;3.67;1.20;;;15.30;99.90;;;;;;4881924;29;21026;-69
2023/03/30 09:55:58;;;;;;;0.97;0.87;;;15.30;99.90;;;;;;4871797;29;20481;-68
2023/03/30 09:58:28;;;;;;;0.93;0.90;;;15.20;99.90;;;;;;4872450;29;20527;-69
2023/03/30 10:01:04;;;;;;;2.43;1.30;;;15.30;99.90;;;;;;4877772;29;20509;-69
2023/03/30 10:03:31;;;;;;;2.00;1.20;;;15.40;99.90;;;;;;4874732;29;20974;-69
2023/03/30 10:06:03;;;;;;;2.03;1.00;;;15.40;99.90;;;;;;4878481;29;20477;-69
2023/03/30 10:08:32;;;;;;;3.63;1.27;;;15.50;99.90;;;;;;4876523;29;20504;-70
2023/03/30 10:11:02;;;;;;;1.30;1.23;;;15.60;99.90;;;;;;4860585;29;20511;-69
2023/03/30 10:13:32;;;;;;;1.17;1.00;;;15.50;99.90;;;;;;4864025;29;20472;-70
2023/03/30 10:16:05;;;;;;;1.27;1.17;;;15.50;99.90;;;;;;4870471;29;20536;-72
2023/03/30 10:18:39;;;;;;;1.50;1.40;;;15.60;99.90;;;;;;4868035;29;20874;-69
2023/03/30 10:21:11;;;;;;;2.97;1.20;;;15.70;99.90;;;;;;4871499;29;21104;-69
2023/03/30 10:23:43;;;;;;;0.83;0.80;;;15.70;99.90;;;;;;4859147;29;20469;-69
2023/03/30 10:26:17;;;;;;;0.43;0.43;;;15.80;99.90;;;;;;4890546;29;20591;-69
2023/03/30 10:28:52;;;;;;;3.03;1.50;;;15.80;99.90;;;;;;4875607;29;20528;-69
2023/03/30 10:31:20;;;;;;;0.80;0.80;;;15.90;99.90;;;;;;4877976;29;20906;-70
2023/03/30 10:33:48;;;;;;;0.63;0.63;;;15.90;99.90;;;;;;4872861;29;20812;-69
2023/03/30 10:36:17;;;;;;;0.90;0.90;;;15.90;99.90;;;;;;4868546;29;20467;-70
2023/03/30 10:38:45;;;;;;;1.10;1.10;;;15.80;99.90;;;;;;4881747;29;20483;-69
2023/03/30 10:41:15;;;;;;;1.70;1.00;;;15.90;99.90;;;;;;4876641;29;20560;-69
2023/03/30 10:43:43;;;;;;;1.00;0.90;;;15.90;99.90;;;;;;4894038;29;20467;-69
2023/03/30 10:46:14;;;;;;;0.70;0.70;;;15.90;99.90;;;;;;4874816;29;21800;-69
2023/03/30 10:49:01;;;;;;;1.50;1.50;;;15.70;99.90;;;;;;4875493;29;20496;-70
2023/03/30 10:51:39;;;;;;;0.80;0.80;;;15.60;99.90;;;;;;4876507;29;20960;-70
2023/03/30 10:54:15;;;;;;;1.07;1.07;;;15.40;99.90;;;;;;4874031;29;20503;-72
2023/03/30 10:56:46;;;;;;;0.83;0.70;;;15.20;99.90;;;;;;4873139;29;20492;-68
2023/03/30 10:59:25;;;;;;;0.70;0.70;;;15.10;99.90;;;;;;4870726;29;20486;-68
2023/03/30 11:02:01;;;;;;;1.00;1.00;;;14.90;99.90;;;;;;4879258;29;20856;-69
2023/03/30 11:04:33;;;;;;;0.70;0.70;;;14.80;99.90;;;;;;4864576;29;20588;-69
2023/03/30 11:07:02;;;;;;;0.80;0.80;;;14.80;99.90;;;;;;4871503;29;20480;-68
2023/03/30 11:09:34;;;;;;;1.13;0.90;;;14.80;99.90;;;;;;4870283;29;20469;-68
2023/03/30 11:12:05;;;;;;;0.30;0.30;;;14.70;99.90;;;;;;4873687;29;20451;-68
2023/03/30 11:14:47;;;;;;;4.30;0.87;;;14.80;99.90;;;;;;4870364;29;20476;-68
2023/03/30 11:17:21;;;;;;;0.40;0.37;;;14.80;99.90;;;;;;4875494;29;20939;-67
2023/03/30 11:19:51;;;;;;;0.60;0.60;;;14.90;99.90;;;;;;4874789;29;20476;-68
2023/03/30 11:22:25;;;;;;;2.17;0.67;;;15.10;99.90;;;;;;4882220;29;20468;-68
2023/03/30 11:24:55;;;;;;;3.53;0.93;;;15.30;99.90;;;;;;4885350;29;20469;-68
2023/03/30 11:27:26;;;;;;;0.97;0.97;;;15.40;99.90;;;;;;4864202;29;20512;-68
2023/03/30 11:30:00;;;;;;;0.60;0.60;;;15.50;99.90;;;;;;4886557;29;20564;-69
2023/03/30 11:32:32;;;;;;;7.10;1.27;;;15.60;99.90;;;;;;4876198;29;20845;-69
2023/03/30 11:35:06;;;;;;;0.43;0.43;;;15.70;99.90;;;;;;4870914;29;20847;-68
2023/03/30 11:37:40;;;;;;;0.63;0.63;;;15.70;99.90;;;;;;4877165;29;20844;-69
2023/03/30 11:40:17;;;;;;;3.50;1.37;;;15.90;99.90;;;;;;4868194;29;20497;-68
2023/03/30 11:42:44;;;;;;;0.60;0.60;;;16.00;99.90;;;;;;4882889;29;20535;-69
2023/03/30 11:45:21;;;;;;;0.47;0.47;;;16.00;99.90;;;;;;4864183;29;20473;-69
2023/03/30 11:48:03;;;;;;;1.47;0.57;;;16.00;99.90;;;;;;4874661;29;20526;-68
2023/03/30 11:50:40;;;;;;;0.50;0.50;;;16.00;99.90;;;;;;4866730;29;20465;-69
2023/03/30 11:53:18;;;;;;;0.40;0.40;;;16.00;99.90;;;;;;4873626;29;20466;-69
2023/03/30 11:55:54;;;;;;;1.90;0.30;;;16.00;99.90;;;;;;4881476;29;20455;-69
2023/03/30 11:58:31;;;;;;;4.60;0.60;;;16.10;99.90;;;;;;4890684;29;20968;-68
2023/03/30 12:01:13;;;;;;;0.50;0.50;;;16.20;99.90;;;;;;4862305;29;20904;-69
2023/03/30 12:03:42;;;;;;;0.30;0.30;;;16.20;99.90;;;;;;4862919;29;20806;-70
2023/03/30 12:06:26;;;;;;;0.40;0.40;;;16.20;99.90;;;;;;4865534;29;20491;-68
2023/03/30 12:09:18;;;;;;;0.53;0.53;;;16.20;99.90;;;;;;4872278;29;20525;-69
2023/03/30 12:11:50;;;;;;;0.70;0.60;;;16.20;99.90;;;;;;4868852;29;20472;-70
2023/03/30 12:14:32;;;;;;;0.30;0.30;;;16.20;99.90;;;;;;4895092;29;20215;-69
2023/03/30 12:17:06;;;;;;;9.33;1.50;;;16.30;99.90;;;;;;4895398;29;20922;-70
2023/03/30 12:19:41;;;;;;;0.53;0.53;;;16.50;99.90;;;;;;4896249;29;20462;-69
2023/03/30 12:22:14;;;;;;;0.40;0.40;;;16.70;99.90;;;;;;4873944;29;20472;-69
2023/03/30 12:24:49;;;;;;;2.10;0.73;;;16.70;99.90;;;;;;4873822;29;20933;-69
2023/03/30 12:27:17;;;;;;;1.13;0.57;;;16.70;99.90;;;;;;4876580;29;20483;-69
2023/03/30 12:29:46;;;;;;;1.23;1.23;;;16.60;99.90;;;;;;4877054;29;20464;-68
2023/03/30 12:32:22;;;;;;;1.07;1.07;;;16.40;99.90;;;;;;4877030;29;20468;-69
2023/03/30 12:34:49;;;;;;;0.20;0.20;;;16.10;99.90;;;;;;4871264;29;20475;-68
2023/03/30 12:37:20;;;;;;;0.20;0.20;;;15.10;99.90;;;;;;4869039;29;20840;-68
2023/03/30 12:39:48;;;;;;;0.53;0.53;;;14.00;99.90;;;;;;4880853;29;21012;-69
2023/03/30 12:42:26;;;;;;;0.30;0.30;;;13.20;99.90;;;;;;4888032;29;20851;-69
2023/03/30 12:45:20;;;;;;;0.60;0.60;;;12.80;99.90;;;;;;4892807;29;20462;-69
2023/03/30 12:48:23;;;;;;;2.40;0.77;;;12.60;99.90;;;;;;4893010;29;20496;-70
2023/03/30 12:51:01;;;;;;;0.20;0.20;;;12.50;99.90;;;;;;4869878;29;20502;-67
2023/03/30 12:53:52;;;;;;;0.30;0.30;;;12.50;99.90;;;;;;4875809;29;20460;-65
2023/03/30 12:56:34;;;;;;;0.37;0.37;;;12.60;99.90;;;;;;4875989;29;20472;-68
2023/03/30 12:59:20;;;;;;;0.70;0.40;;;12.80;99.90;;;;;;4876352;29;20503;-69
2023/03/30 13:02:00;;;;;;;5.67;0.80;;;13.00;99.90;;;;;;4878480;29;20472;-68
2023/03/30 13:04:32;;;;;;;0.60;0.60;;;13.10;99.90;;;;;;4880856;29;20477;-68
2023/03/30 13:07:02;;;;;;;1.33;0.90;;;13.20;99.90;;;;;;4881739;29;20844;-68
2023/03/30 13:09:33;;;;;;;0.57;0.57;;;13.30;99.90;;;;;;4880115;29;20946;-69
2023/03/30 13:12:34;;;;;;;2.00;1.67;;;13.40;99.90;;;;;;4879346;29;20461;-69
2023/03/30 13:15:29;;;;;;;4.83;1.37;;;13.60;99.90;;;;;;4837884;29;20975;-69
2023/03/30 13:18:01;;;;;;;4.43;1.17;;;13.90;99.90;;;;;;4898084;29;20494;-69
2023/03/30 13:20:31;;;;;;;0.67;0.67;;;13.90;99.90;;;;;;4889923;29;20471;-69
2023/03/30 13:23:27;;;;;;;14.03;1.57;;;13.90;99.90;;;;;;4898056;29;20485;-69
2023/03/30 13:26:04;;;;;;;0.97;0.97;;;13.80;99.90;;;;;;4881399;29;20581;-68
2023/03/30 13:28:47;;;;;;;0.70;0.70;;;13.70;99.90;;;;;;4883734;29;20479;-68
2023/03/30 13:31:38;;;;;;;0.27;0.27;;;13.70;99.90;;;;;;4860772;29;20807;-69
2023/03/30 13:34:15;;;;;;;2.53;1.10;;;13.70;99.90;;;;;;4855530;29;20467;-69
2023/03/30 13:36:46;;;;;;;0.50;0.50;;;13.70;99.90;;;;;;4897534;29;20674;-69
2023/03/30 13:39:18;;;;;;;0.50;0.50;;;14.00;99.90;;;;;;4898047;29;20896;-69
2023/03/30 13:41:56;;;;;;;1.00;1.00;;;14.10;99.90;;;;;;4891824;29;21002;-69
2023/03/30 13:44:48;;;;;;;1.40;0.80;;;14.20;99.90;;;;;;4897459;29;20462;-68
2023/03/30 13:47:33;;;;;;;1.20;0.40;;;14.10;99.90;;;;;;4894034;29;20970;-69
2023/03/30 13:50:02;;;;;;;1.13;1.13;;;14.10;99.90;;;;;;4892788;29;20475;-69
2023/03/30 13:52:33;;;;;;;0.50;0.50;;;14.10;99.90;;;;;;4897469;29;20495;-70
2023/03/30 13:55:01;;;;;;;0.70;0.70;;;14.10;99.90;;;;;;4895122;29;20475;-69
2023/03/30 13:57:33;;;;;;;1.00;1.00;;;14.10;99.90;;;;;;4884529;29;20497;-69
2023/03/30 14:00:05;;;;;;;0.53;0.53;;;14.10;99.90;;;;;;4875384;29;20477;-69
2023/03/30 14:02:33;;;;;;;1.73;1.63;;;14.10;99.90;;;;;;4865508;29;20560;-68
2023/03/30 14:05:13;;;;;;;7.03;1.40;;;14.10;99.90;;;;;;4870637;29;20476;-68
2023/03/30 14:07:45;;;;;;;0.27;0.27;;;14.10;99.90;;;;;;4887478;29;20524;-68
2023/03/30 14:10:15;;;;;;;2.60;1.30;;;14.10;99.90;;;;;;4874030;29;20468;-69
2023/03/30 14:12:43;;;;;;;3.07;1.23;;;14.10;99.90;;;;;;4892156;29;20471;-68
2023/03/30 14:15:19;;;;;;;1.70;1.70;;;14.10;99.90;;;;;;4869753;29;20480;-68
2023/03/30 14:17:51;;;;;;;0.77;0.60;;;14.10;99.90;;;;;;4866913;29;20584;-69
2023/03/30 14:20:28;;;;;;;0.50;0.50;;;14.10;99.90;;;;;;4883487;29;20505;-69
2023/03/30 14:22:57;;;;;;;1.43;1.00;;;14.10;99.90;;;;;;4887915;29;20481;-69
2023/03/30 14:25:27;;;;;;;4.77;1.73;;;14.10;99.90;;;;;;4882210;29;20487;-70
2023/03/30 14:27:57;;;;;;;3.40;2.30;;;14.10;99.90;;;;;;4873769;29;20496;-68
2023/03/30 14:30:25;;;;;;;1.33;1.23;;;14.20;99.90;;;;;;4883126;29;20479;-68
2023/03/30 14:33:06;;;;;;;3.00;1.10;;;14.40;99.90;;;;;;4891451;29;20460;-69
2023/03/30 14:35:34;;;;;;;3.30;0.57;;;14.60;99.90;;;;;;4886444;29;20520;-70
2023/03/30 14:38:02;;;;;;;2.00;0.90;;;14.70;99.90;;;;;;4896173;29;20487;-68
2023/03/30 14:40:28;;;;;;;6.23;1.50;;;14.80;99.90;;;;;;4884791;29;20477;-70
2023/03/30 14:42:55;;;;;;;0.40;0.40;;;15.00;99.90;;;;;;4892670;29;21259;-69
2023/03/30 14:45:22;;;;;;;2.13;0.63;;;15.10;99.90;;;;;;4869929;29;20468;-68
2023/03/30 14:47:50;;;;;;;1.80;0.80;;;15.10;99.90;;;;;;4868836;29;20484;-69
2023/03/30 14:50:18;;;;;;;0.37;0.37;;;15.20;99.90;;;;;;4874188;29;21017;-70
2023/03/30 14:52:47;;;;;;;2.07;0.90;;;15.20;99.90;;;;;;4879482;29;20456;-68
2023/03/30 14:55:18;;;;;;;0.40;0.40;;;15.20;99.90;;;;;;4875758;29;20923;-68
2023/03/30 14:57:46;;;;;;;2.30;0.60;;;15.20;99.90;;;;;;4859999;29;20500;-68
2023/03/30 15:00:17;;;;;;;0.50;0.50;;;15.20;99.90;;;;;;4865696;29;20475;-70
2023/03/30 15:02:44;;;;;;;0.30;0.30;;;15.10;99.90;;;;;;4891997;29;20476;-69
2023/03/30 15:05:12;;;;;;;1.57;0.50;;;14.90;99.90;;;;;;4896166;29;20475;-68
2023/03/30 15:07:40;;;;;;;4.23;0.93;;;14.90;99.90;;;;;;4884807;29;20499;-69
2023/03/30 15:10:08;;;;;;;0.60;0.60;;;14.80;99.90;;;;;;4870012;29;20479;-70
2023/03/30 15:12:39;;;;;;;5.03;0.50;;;14.80;99.90;;;;;;4876780;29;20499;-69
2023/03/30 15:15:08;;;;;;;0.23;0.23;;;14.80;99.90;;;;;;4882317;29;20606;-69
2023/03/30 15:17:39;;;;;;;0.50;0.50;;;14.80;99.90;;;;;;4877517;29;20499;-69
2023/03/30 15:20:08;;;;;;;0.93;0.40;;;14.90;99.90;;;;;;4872247;29;20471;-68
2023/03/30 15:22:38;;;;;;;7.53;0.70;;;15.00;99.90;;;;;;4879209;29;20477;-70
2023/03/30 15:25:11;;;;;;;1.40;1.30;;;15.10;99.90;;;;;;4873312;29;20598;-69
2023/03/30 15:27:39;;;;;;;0.80;0.80;;;15.20;99.90;;;;;;4895744;29;20495;-68
2023/03/30 15:30:07;;;;;;;0.40;0.40;;;15.20;99.90;;;;;;4877321;29;20470;-69
2023/03/30 15:32:37;;;;;;;1.03;0.53;;;15.20;99.90;;;;;;4873256;29;20972;-70
2023/03/30 15:35:18;;;;;;;0.80;0.40;;;15.10;99.90;;;;;;4865551;29;20472;-69
2023/03/30 15:37:53;;;;;;;2.57;1.03;;;15.10;99.90;;;;;;4882993;29;20976;-68
2023/03/30 15:40:30;;;;;;;0.50;0.23;;;15.00;99.90;;;;;;4883764;29;20503;-69
2023/03/30 15:43:16;;;;;;;4.13;1.03;;;15.10;99.90;;;;;;4894661;29;20459;-70
2023/03/30 15:45:47;;;;;;;0.20;0.20;;;15.00;99.90;;;;;;4891536;29;20529;-68
2023/03/30 15:48:17;;;;;;;1.40;0.27;;;15.00;99.90;;;;;;4866138;29;20495;-69
2023/03/30 15:50:47;;;;;;;0.30;0.30;;;15.00;99.90;;;;;;4864087;29;20492;-69
2023/03/30 15:53:20;;;;;;;1.90;0.43;;;15.00;99.90;;;;;;4883345;29;20472;-68
2023/03/30 15:55:51;;;;;;;0.20;0.20;;;15.00;99.90;;;;;;4891781;29;20499;-68
2023/03/30 15:58:23;;;;;;;0.43;0.43;;;15.00;99.90;;;;;;4866789;29;20500;-72
2023/03/30 16:00:51;;;;;;;0.33;0.33;;;15.10;99.90;;;;;;4879495;29;20564;-69
2023/03/30 16:03:31;;;;;;;2.97;1.70;;;15.20;99.90;;;;;;4859023;29;20473;-68
2023/03/30 16:05:57;;;;;;;0.40;0.40;;;15.10;99.90;;;;;;4868347;29;20472;-69
2023/03/30 16:08:24;;;;;;;1.33;0.70;;;15.00;99.90;;;;;;4873733;29;20488;-69
2023/03/30 16:10:52;;;;;;;1.80;0.80;;;15.00;99.90;;;;;;4872423;29;20975;-69
2023/03/30 16:13:19;;;;;;;3.50;2.93;;;14.90;99.90;;;;;;4887285;29;20479;-70
2023/03/30 16:15:46;;;;;;;0.30;0.30;;;14.90;99.90;;;;;;4889294;29;20481;-70
2023/03/30 16:18:12;;;;;;;0.70;0.70;;;14.90;99.90;;;;;;4882141;29;20503;-71
2023/03/30 16:20:39;;;;;;;0.70;0.63;;;14.90;99.90;;;;;;4875910;29;20476;-69
2023/03/30 16:23:07;;;;;;;0.20;0.20;;;14.90;99.90;;;;;;4864636;29;20489;-70
2023/03/30 16:25:34;;;;;;;0.50;0.50;;;14.90;99.90;;;;;;4877569;29;20824;-69
2023/03/30 16:28:02;;;;;;;1.40;0.60;;;14.80;99.90;;;;;;4874251;29;20551;-69
2023/03/30 16:30:32;;;;;;;0.73;0.73;;;14.80;99.90;;;;;;4876142;29;20470;-69
2023/03/30 16:32:59;;;;;;;0.30;0.30;;;14.80;99.90;;;;;;4867002;29;20559;-70
2023/03/30 16:35:26;;;;;;;1.33;0.50;;;14.70;99.90;;;;;;4883618;29;20468;-69
2023/03/30 16:37:53;;;;;;;0.60;0.53;;;14.70;99.90;;;;;;4887545;29;20491;-70
2023/03/30 16:40:27;;;;;;;1.47;0.60;;;14.70;99.90;;;;;;4882420;29;20479;-69
2023/03/30 16:42:54;;;;;;;0.30;0.30;;;14.80;99.90;;;;;;4886665;29;20489;-69
2023/03/30 16:45:22;;;;;;;3.80;2.20;;;14.70;99.90;;;;;;4865923;29;20469;-69
2023/03/30 16:47:49;;;;;;;1.37;1.37;;;14.70;99.90;;;;;;4881443;29;20486;-69
2023/03/30 16:50:20;;;;;;;1.13;0.97;;;14.60;99.90;;;;;;4864057;29;20481;-69
2023/03/30 16:52:47;;;;;;;0.50;0.50;;;14.60;99.90;;;;;;4883069;29;20474;-72
2023/03/30 16:55:15;;;;;;;0.40;0.40;;;14.50;99.90;;;;;;4880343;29;20467;-70
2023/03/30 16:57:42;;;;;;;0.93;0.47;;;14.40;99.90;;;;;;4883302;29;20509;-70
2023/03/30 17:00:22;;;;;;;0.40;0.40;;;14.40;99.90;;;;;;4874494;29;20868;-71
2023/03/30 17:02:50;;;;;;;0.30;0.30;;;14.40;99.90;;;;;;4874054;29;20515;-68
2023/03/30 17:05:17;;;;;;;0.93;0.33;;;14.20;99.90;;;;;;4870092;29;20814;-70
2023/03/30 17:07:44;;;;;;;1.47;0.97;;;14.20;99.90;;;;;;4880490;29;20574;-70